Selviria, Brazil
Current Conditions -  °F | °C
As of 9:00 AM on Friday 24 Oct 2014 (Local Time) from SBAU Reporting Station
Thunderstorm Thunderstorm  
Wind Chill: 75°   Ceiling: Unl
Heat Index: 75°   Visibility: 5mi
Dew Point: 66°   Wind: 9mph
Humidity: 73%   Direction: 100°E
Pressure: 30.03"   Gusts: NA
Location:  20.37°S, 51.42°W
Report Text: SBAU 241200Z 10008KT 8000 -TSRA FEW040CB SCT080 24/19 Q1017
Loading
Personal Weather Stations






























Interactive Weather Map
Tropical Storm Tracking
New forecast layout! Learn more

10-Day Weather Forecast

Advertisements
Track Severe Weather on mobile